Time;durP1;ratioP1;P1;durP2;ratioP2;P2;SDS_P1;SDS_P2;PMS_P1;PMS_P2;Temp;Humidity;BMP_temperature;BMP_pressure;BME280_temperature;BME280_humidity;BME280_pressure;Samples;Min_cycle;Max_cycle;Signal;HPM_P1;HPM_P2
2021/04/28 00:01:11;;;;;;;5.10;4.40;;;15.30;28.80;;;;;;1488256;39;20044;-51
2021/04/28 00:02:32;;;;;;;7.00;3.97;;;15.30;28.80;;;;;;1489154;39;20016;-50
2021/04/28 00:03:53;;;;;;;7.68;4.50;;;15.30;28.90;;;;;;1484437;39;20064;-55
2021/04/28 00:05:15;;;;;;;6.25;4.53;;;15.30;28.90;;;;;;1487330;39;20039;-54
2021/04/28 00:06:36;;;;;;;5.50;4.22;;;15.30;29.00;;;;;;1481107;40;20345;-55
2021/04/28 00:07:57;;;;;;;5.78;4.15;;;15.30;29.10;;;;;;1487978;39;20040;-53
2021/04/28 00:09:18;;;;;;;4.38;3.95;;;15.20;29.00;;;;;;1490618;39;20020;-51
2021/04/28 00:10:42;;;;;;;4.30;3.90;;;15.20;29.00;;;;;;1491117;39;20035;-51
2021/04/28 00:12:03;;;;;;;5.13;4.05;;;15.20;29.00;;;;;;1490278;39;20077;-55
2021/04/28 00:13:24;;;;;;;5.82;4.28;;;15.20;29.00;;;;;;1489697;39;20081;-53
2021/04/28 00:14:45;;;;;;;5.93;4.07;;;15.20;29.00;;;;;;1490644;39;20063;-52
2021/04/28 00:16:06;;;;;;;5.30;4.53;;;15.20;29.00;;;;;;1488979;39;20025;-50
2021/04/28 00:17:27;;;;;;;4.78;4.28;;;15.20;29.20;;;;;;1490759;39;20028;-53
2021/04/28 00:18:49;;;;;;;4.97;4.40;;;15.10;29.50;;;;;;1488613;39;20415;-54
2021/04/28 00:20:12;;;;;;;5.13;4.15;;;15.20;29.40;;;;;;1488926;39;20121;-53
2021/04/28 00:21:33;;;;;;;6.55;4.20;;;15.10;29.40;;;;;;1489646;39;20020;-51
2021/04/28 00:22:55;;;;;;;4.65;3.90;;;15.10;29.30;;;;;;1488721;39;20043;-53
2021/04/28 00:24:16;;;;;;;5.25;4.70;;;15.10;29.50;;;;;;1490251;39;20352;-52
2021/04/28 00:25:38;;;;;;;5.28;4.07;;;15.10;29.60;;;;;;1488664;39;20034;-54
2021/04/28 00:26:59;;;;;;;5.35;4.05;;;15.00;29.60;;;;;;1491539;39;20269;-50
2021/04/28 00:28:21;;;;;;;6.78;4.32;;;15.00;29.70;;;;;;1489780;39;20039;-54
2021/04/28 00:29:41;;;;;;;5.47;3.95;;;15.00;29.70;;;;;;1490339;39;20075;-51
2021/04/28 00:31:03;;;;;;;6.65;4.50;;;15.00;29.90;;;;;;1488856;39;20024;-53
2021/04/28 00:32:23;;;;;;;4.93;4.10;;;14.90;30.00;;;;;;1490194;39;20341;-54
2021/04/28 00:33:44;;;;;;;5.90;4.00;;;14.90;30.00;;;;;;1488928;39;20480;-54
2021/04/28 00:35:09;;;;;;;7.88;4.15;;;14.90;30.00;;;;;;1491900;39;20059;-52
2021/04/28 00:36:29;;;;;;;5.50;4.13;;;14.90;30.30;;;;;;1490041;39;20282;-53
2021/04/28 00:37:51;;;;;;;4.82;4.28;;;14.90;30.20;;;;;;1491467;39;20039;-49
2021/04/28 00:39:12;;;;;;;7.00;4.22;;;14.90;30.00;;;;;;1490785;39;20031;-53
2021/04/28 00:40:37;;;;;;;6.65;4.63;;;14.80;30.00;;;;;;1491133;39;20107;-52
2021/04/28 00:41:57;;;;;;;7.20;4.78;;;14.80;30.10;;;;;;1490303;39;20024;-53
2021/04/28 00:43:19;;;;;;;5.93;4.32;;;14.80;30.10;;;;;;1490026;39;20020;-50
2021/04/28 00:44:40;;;;;;;4.75;4.15;;;14.80;30.10;;;;;;1489566;39;20046;-52
2021/04/28 00:46:01;;;;;;;6.70;4.70;;;14.80;30.10;;;;;;1488780;39;20032;-52
2021/04/28 00:47:22;;;;;;;5.28;4.32;;;14.80;30.20;;;;;;1490176;39;20057;-52
2021/04/28 00:48:43;;;;;;;5.45;4.47;;;14.70;30.10;;;;;;1487231;39;20036;-50
2021/04/28 00:50:05;;;;;;;4.38;3.72;;;14.70;30.00;;;;;;1483297;39;20040;-53
2021/04/28 00:51:26;;;;;;;5.28;4.50;;;14.70;30.00;;;;;;1488336;39;20284;-53
2021/04/28 00:52:47;;;;;;;5.30;4.28;;;14.70;30.00;;;;;;1488561;39;20036;-50
2021/04/28 00:54:09;;;;;;;4.95;4.45;;;14.70;30.00;;;;;;1491550;39;20036;-51
2021/04/28 00:55:30;;;;;;;5.53;4.07;;;14.60;30.00;;;;;;1489472;39;20028;-54
2021/04/28 00:56:55;;;;;;;5.30;4.32;;;14.60;30.10;;;;;;1489229;39;20032;-53
2021/04/28 00:58:16;;;;;;;5.57;4.68;;;14.60;30.20;;;;;;1490873;39;20278;-54
2021/04/28 00:59:37;;;;;;;5.55;4.35;;;14.60;30.00;;;;;;1489233;39;20046;-51
2021/04/28 01:00:58;;;;;;;7.03;4.60;;;14.60;30.10;;;;;;1490780;39;20124;-54
2021/04/28 01:02:19;;;;;;;6.22;4.70;;;14.60;30.30;;;;;;1491173;39;20027;-52
2021/04/28 01:03:40;;;;;;;4.57;4.15;;;14.50;30.30;;;;;;1490241;39;20367;-52
2021/04/28 01:05:03;;;;;;;4.40;3.97;;;14.50;30.30;;;;;;1489569;39;20032;-54
2021/04/28 01:06:24;;;;;;;5.60;4.00;;;14.50;30.30;;;;;;1489620;39;20019;-52
2021/04/28 01:07:47;;;;;;;5.28;4.35;;;14.50;30.40;;;;;;1489791;39;20279;-53
2021/04/28 01:09:08;;;;;;;6.00;4.18;;;14.50;30.40;;;;;;1491618;39;20032;-54
2021/04/28 01:10:33;;;;;;;6.65;4.53;;;14.50;30.50;;;;;;1489413;39;20040;-54
2021/04/28 01:11:55;;;;;;;6.05;4.57;;;14.40;30.60;;;;;;1491530;39;20078;-50
2021/04/28 01:13:17;;;;;;;6.35;4.03;;;14.40;30.70;;;;;;1489758;39;20345;-52
2021/04/28 01:14:39;;;;;;;6.18;4.30;;;14.40;30.70;;;;;;1488575;39;20038;-51
2021/04/28 01:16:00;;;;;;;6.07;4.40;;;14.40;30.80;;;;;;1490762;39;20368;-51
2021/04/28 01:17:21;;;;;;;4.65;4.18;;;14.40;30.90;;;;;;1490621;39;20051;-53
2021/04/28 01:18:42;;;;;;;6.63;4.15;;;14.40;30.90;;;;;;1490696;39;20027;-50
2021/04/28 01:20:09;;;;;;;6.85;4.28;;;14.40;30.90;;;;;;1490178;39;20028;-54
2021/04/28 01:21:30;;;;;;;5.80;4.45;;;14.40;31.00;;;;;;1490765;39;20577;-50
2021/04/28 01:22:52;;;;;;;6.88;4.32;;;14.40;30.90;;;;;;1490279;39;20316;-54
2021/04/28 01:24:13;;;;;;;6.20;4.40;;;14.30;31.00;;;;;;1491486;39;20035;-54
2021/04/28 01:25:35;;;;;;;5.55;4.53;;;14.30;31.10;;;;;;1490111;39;20455;-50
2021/04/28 01:27:01;;;;;;;6.55;4.45;;;14.30;31.10;;;;;;1490826;39;20327;-53
2021/04/28 01:28:24;;;;;;;5.72;4.60;;;14.30;31.10;;;;;;1489455;39;20020;-53
2021/04/28 01:29:45;;;;;;;5.57;4.57;;;14.20;31.00;;;;;;1490517;39;20036;-54
2021/04/28 01:31:10;;;;;;;5.88;4.50;;;14.20;31.10;;;;;;1490451;39;20514;-53
2021/04/28 01:32:32;;;;;;;7.50;4.57;;;14.20;31.20;;;;;;1491515;39;20062;-52
2021/04/28 01:34:02;;;;;;;4.70;4.18;;;14.20;31.20;;;;;;1490810;39;20651;-53
2021/04/28 01:35:25;;;;;;;4.50;4.10;;;14.20;31.40;;;;;;1489729;39;20034;-54
2021/04/28 01:36:47;;;;;;;5.15;4.47;;;14.20;31.20;;;;;;1488883;39;20100;-55
2021/04/28 01:38:08;;;;;;;4.80;4.30;;;14.10;31.30;;;;;;1490919;39;20154;-52
2021/04/28 01:39:31;;;;;;;5.28;4.78;;;14.10;31.50;;;;;;1486785;40;20064;-54
2021/04/28 01:40:54;;;;;;;6.35;4.32;;;14.10;31.50;;;;;;1489514;39;20032;-55
2021/04/28 01:42:17;;;;;;;7.38;4.80;;;14.10;31.60;;;;;;1491281;39;20036;-54
2021/04/28 01:43:40;;;;;;;6.07;4.22;;;14.10;31.80;;;;;;1490621;39;20443;-54
2021/04/28 01:45:02;;;;;;;5.72;4.50;;;14.10;31.80;;;;;;1490742;39;20063;-51
2021/04/28 01:46:27;;;;;;;5.53;4.22;;;14.00;31.80;;;;;;1489880;39;20660;-53
2021/04/28 01:47:49;;;;;;;5.03;4.30;;;14.00;32.10;;;;;;1489178;39;20058;-55
2021/04/28 01:49:11;;;;;;;6.10;4.65;;;14.00;31.90;;;;;;1491375;39;20046;-50
2021/04/28 01:50:33;;;;;;;6.10;4.40;;;14.00;31.90;;;;;;1490106;39;20026;-52
2021/04/28 01:51:55;;;;;;;5.55;4.68;;;14.00;32.00;;;;;;1489814;39;21954;-54
2021/04/28 01:53:18;;;;;;;5.15;4.65;;;14.00;31.90;;;;;;1490714;39;20039;-54
2021/04/28 01:54:39;;;;;;;5.65;4.40;;;13.90;32.00;;;;;;1490074;39;20387;-51
2021/04/28 01:56:00;;;;;;;6.22;4.95;;;13.90;32.10;;;;;;1491092;39;20039;-54
2021/04/28 01:57:24;;;;;;;6.35;4.43;;;13.90;32.00;;;;;;1484207;40;20021;-54
2021/04/28 01:58:46;;;;;;;5.32;4.57;;;13.90;32.10;;;;;;1488581;39;20035;-53
2021/04/28 02:00:10;;;;;;;6.05;4.47;;;13.90;32.00;;;;;;1489618;39;20039;-55
2021/04/28 02:01:32;;;;;;;4.75;4.22;;;13.90;32.10;;;;;;1490522;39;20089;-54
2021/04/28 02:02:52;;;;;;;9.20;4.40;;;13.90;32.10;;;;;;1485741;39;20027;-55
2021/04/28 02:04:15;;;;;;;5.85;4.45;;;13.80;32.10;;;;;;1488188;39;20046;-53
2021/04/28 02:05:36;;;;;;;4.97;4.43;;;13.80;32.20;;;;;;1489874;39;20047;-54
2021/04/28 02:06:57;;;;;;;6.57;4.60;;;13.80;32.30;;;;;;1488801;39;20024;-52
2021/04/28 02:08:19;;;;;;;7.18;4.50;;;13.80;32.30;;;;;;1490614;39;20280;-51
2021/04/28 02:09:40;;;;;;;5.72;4.35;;;13.80;32.40;;;;;;1490196;39;20335;-54
2021/04/28 02:11:03;;;;;;;6.97;4.68;;;13.80;32.40;;;;;;1490075;39;20364;-53
2021/04/28 02:12:24;;;;;;;5.00;4.50;;;13.70;32.40;;;;;;1489809;39;20019;-53
2021/04/28 02:13:48;;;;;;;6.82;4.55;;;13.70;32.40;;;;;;1488785;39;20584;-55
2021/04/28 02:15:11;;;;;;;5.97;4.63;;;13.70;32.50;;;;;;1489020;39;20407;-53
2021/04/28 02:16:36;;;;;;;6.95;4.65;;;13.70;32.50;;;;;;1488746;39;20377;-53
2021/04/28 02:18:00;;;;;;;5.90;4.80;;;13.70;32.50;;;;;;1488383;39;20047;-53
2021/04/28 02:19:21;;;;;;;4.68;4.22;;;13.70;32.70;;;;;;1489227;39;20631;-54
2021/04/28 02:20:43;;;;;;;5.38;4.25;;;13.70;32.80;;;;;;1488028;39;20068;-52
2021/04/28 02:22:05;;;;;;;6.97;4.55;;;13.60;33.10;;;;;;1488926;39;20028;-51
2021/04/28 02:23:27;;;;;;;5.22;4.72;;;13.60;33.10;;;;;;1490593;39;20261;-54
2021/04/28 02:24:48;;;;;;;5.20;4.60;;;13.60;33.10;;;;;;1490981;39;20037;-51
2021/04/28 02:26:09;;;;;;;6.00;4.32;;;13.60;33.30;;;;;;1490361;39;20261;-54
2021/04/28 02:27:30;;;;;;;4.85;4.32;;;13.60;33.30;;;;;;1490910;39;20035;-52
2021/04/28 02:28:50;;;;;;;4.75;3.88;;;13.60;33.20;;;;;;1490230;39;20093;-54
2021/04/28 02:30:15;;;;;;;4.75;4.20;;;13.60;33.30;;;;;;1489650;39;20361;-53
2021/04/28 02:31:36;;;;;;;4.75;4.35;;;13.50;33.40;;;;;;1488795;39;20081;-52
2021/04/28 02:32:57;;;;;;;6.05;4.88;;;13.50;33.30;;;;;;1490408;39;20538;-54
2021/04/28 02:34:18;;;;;;;9.60;4.50;;;13.50;33.40;;;;;;1488956;39;20035;-53
2021/04/28 02:35:41;;;;;;;5.32;4.40;;;13.50;33.50;;;;;;1488900;39;20348;-54
2021/04/28 02:37:03;;;;;;;5.10;4.10;;;13.50;33.60;;;;;;1490772;39;20237;-51
2021/04/28 02:38:48;;;;;;;5.32;4.70;;;13.50;33.60;;;;;;1488380;39;20305;-54
2021/04/28 02:40:12;;;;;;;5.90;4.70;;;13.40;34.00;;;;;;1485855;40;20116;-53
2021/04/28 02:41:33;;;;;;;5.90;4.45;;;13.40;33.50;;;;;;1489437;39;20094;-51
2021/04/28 02:42:54;;;;;;;6.75;4.70;;;13.40;33.70;;;;;;1488495;39;20034;-51
2021/04/28 02:44:18;;;;;;;7.43;5.35;;;13.40;33.90;;;;;;1489038;39;20093;-51
2021/04/28 02:45:43;;;;;;;4.75;4.35;;;13.30;33.80;;;;;;1489480;39;20100;-53
2021/04/28 02:47:07;;;;;;;5.75;4.38;;;13.30;34.10;;;;;;1487754;39;20028;-52
2021/04/28 02:48:29;;;;;;;5.35;4.63;;;13.30;34.10;;;;;;1490487;39;20035;-50
2021/04/28 02:49:51;;;;;;;5.28;4.25;;;13.30;34.10;;;;;;1488829;39;20373;-55
2021/04/28 02:51:13;;;;;;;5.60;4.72;;;13.30;34.20;;;;;;1489336;39;20081;-51
2021/04/28 02:52:35;;;;;;;8.02;4.88;;;13.20;34.30;;;;;;1489348;39;20028;-54
2021/04/28 02:53:57;;;;;;;7.38;5.00;;;13.20;34.30;;;;;;1490934;39;20352;-54
2021/04/28 02:55:19;;;;;;;7.75;5.32;;;13.20;34.40;;;;;;1489822;39;20207;-52
2021/04/28 02:56:40;;;;;;;5.32;4.75;;;13.20;34.50;;;;;;1490014;39;20051;-49
2021/04/28 02:58:01;;;;;;;6.50;4.70;;;13.20;34.50;;;;;;1489182;39;20043;-52
2021/04/28 02:59:23;;;;;;;8.27;5.18;;;13.10;34.50;;;;;;1490115;39;20043;-54
2021/04/28 03:00:44;;;;;;;7.57;5.05;;;13.10;34.60;;;;;;1488953;39;20031;-54
2021/04/28 03:02:07;;;;;;;10.50;4.90;;;13.10;34.60;;;;;;1485922;40;20036;-51
2021/04/28 03:03:28;;;;;;;5.50;4.93;;;13.00;34.70;;;;;;1487914;39;20024;-55
2021/04/28 03:04:50;;;;;;;7.63;4.90;;;13.00;34.70;;;;;;1488199;39;20042;-53
2021/04/28 03:06:13;;;;;;;7.55;5.40;;;13.00;34.80;;;;;;1488132;39;20270;-52
2021/04/28 03:07:35;;;;;;;7.30;5.28;;;13.00;34.90;;;;;;1488273;39;20124;-53
2021/04/28 03:08:56;;;;;;;6.60;4.97;;;13.00;34.90;;;;;;1489445;39;20024;-52
2021/04/28 03:10:18;;;;;;;7.82;4.72;;;12.90;34.80;;;;;;1489834;39;20027;-52
2021/04/28 03:11:40;;;;;;;5.35;4.75;;;12.90;35.40;;;;;;1489640;39;20023;-54
2021/04/28 03:13:01;;;;;;;6.60;4.95;;;12.90;35.00;;;;;;1488956;39;20056;-52
2021/04/28 03:14:23;;;;;;;5.30;4.78;;;12.90;35.10;;;;;;1490653;39;20047;-54
2021/04/28 03:15:45;;;;;;;6.80;5.10;;;12.90;35.00;;;;;;1489165;39;20035;-54
2021/04/28 03:17:07;;;;;;;6.60;4.97;;;12.90;35.20;;;;;;1490803;39;20076;-50
2021/04/28 03:18:28;;;;;;;6.90;4.95;;;12.90;35.30;;;;;;1489460;39;20209;-52
2021/04/28 03:19:51;;;;;;;5.90;4.80;;;12.80;35.30;;;;;;1489212;39;20038;-53
2021/04/28 03:21:13;;;;;;;7.60;4.95;;;12.80;35.30;;;;;;1489231;39;20028;-53
2021/04/28 03:22:36;;;;;;;8.55;5.05;;;12.90;35.30;;;;;;1489669;39;20360;-51
2021/04/28 03:23:57;;;;;;;10.65;6.15;;;12.80;35.30;;;;;;1489681;39;20051;-54
2021/04/28 03:25:18;;;;;;;6.10;5.20;;;12.80;35.40;;;;;;1489713;39;20039;-50
2021/04/28 03:26:38;;;;;;;7.07;5.32;;;12.80;35.50;;;;;;1490784;39;20027;-52
2021/04/28 03:27:59;;;;;;;6.10;5.05;;;12.80;35.40;;;;;;1489721;39;20032;-52
2021/04/28 03:29:20;;;;;;;7.38;5.05;;;12.80;35.40;;;;;;1491156;39;20067;-52
2021/04/28 03:30:41;;;;;;;6.00;5.07;;;12.80;35.30;;;;;;1488035;39;20305;-50
2021/04/28 03:32:04;;;;;;;6.85;5.13;;;12.80;35.30;;;;;;1489691;39;20320;-51
2021/04/28 03:33:24;;;;;;;5.28;4.70;;;12.80;35.40;;;;;;1489960;39;20032;-51
2021/04/28 03:34:45;;;;;;;6.45;5.07;;;12.80;35.50;;;;;;1485641;39;20051;-50
2021/04/28 03:36:06;;;;;;;7.00;5.05;;;12.70;35.50;;;;;;1490186;39;20068;-51
2021/04/28 03:37:27;;;;;;;7.18;4.72;;;12.70;35.50;;;;;;1490842;39;20024;-53
2021/04/28 03:38:48;;;;;;;5.32;4.75;;;12.70;35.40;;;;;;1490682;39;20116;-52
2021/04/28 03:40:10;;;;;;;6.20;5.40;;;12.70;35.30;;;;;;1491208;39;20030;-54
2021/04/28 03:41:31;;;;;;;5.35;4.65;;;12.70;35.40;;;;;;1491492;39;20434;-53
2021/04/28 03:42:52;;;;;;;7.53;5.25;;;12.70;35.50;;;;;;1490299;39;20134;-54
2021/04/28 03:44:12;;;;;;;5.82;5.07;;;12.70;35.60;;;;;;1489628;39;20031;-52
2021/04/28 03:45:33;;;;;;;5.45;4.95;;;12.70;35.80;;;;;;1489168;39;20130;-53
2021/04/28 03:46:54;;;;;;;8.77;4.78;;;12.70;35.80;;;;;;1489953;39;20039;-51
2021/04/28 03:48:16;;;;;;;5.72;4.95;;;12.70;35.70;;;;;;1490493;39;20333;-51
2021/04/28 03:49:37;;;;;;;7.22;4.97;;;12.70;35.80;;;;;;1489562;39;20024;-50
2021/04/28 03:50:58;;;;;;;6.47;5.40;;;12.70;35.80;;;;;;1490102;39;20125;-51
2021/04/28 03:52:19;;;;;;;6.80;4.82;;;12.60;35.80;;;;;;1490826;39;20274;-52
2021/04/28 03:53:40;;;;;;;8.65;5.13;;;12.70;36.00;;;;;;1490726;39;20051;-53
2021/04/28 03:55:01;;;;;;;6.47;5.28;;;12.60;36.10;;;;;;1490877;39;20051;-53
2021/04/28 03:56:25;;;;;;;8.25;5.03;;;12.60;36.30;;;;;;1489781;39;20035;-53
2021/04/28 03:57:46;;;;;;;7.22;5.07;;;12.60;36.30;;;;;;1490551;39;20039;-51
2021/04/28 03:59:08;;;;;;;5.43;4.90;;;12.60;36.10;;;;;;1490630;39;20035;-51
2021/04/28 04:00:29;;;;;;;6.50;5.38;;;12.60;36.20;;;;;;1489447;39;20031;-54
2021/04/28 04:01:50;;;;;;;6.55;5.13;;;12.60;36.30;;;;;;1488420;39;20031;-53
2021/04/28 04:03:11;;;;;;;6.57;5.38;;;12.50;36.20;;;;;;1490670;39;20047;-51
2021/04/28 04:04:32;;;;;;;7.95;5.57;;;12.60;36.70;;;;;;1488926;39;20442;-54
2021/04/28 04:05:53;;;;;;;6.03;4.95;;;12.50;36.00;;;;;;1488997;39;20024;-52
2021/04/28 04:07:13;;;;;;;7.57;5.47;;;12.60;36.10;;;;;;1488925;39;20246;-51
2021/04/28 04:08:34;;;;;;;7.22;5.50;;;12.50;36.00;;;;;;1491084;39;20294;-50
2021/04/28 04:09:55;;;;;;;8.57;5.68;;;12.50;36.10;;;;;;1489209;39;20070;-52
2021/04/28 04:11:16;;;;;;;6.07;4.68;;;12.50;36.20;;;;;;1489716;39;20059;-52
2021/04/28 04:12:37;;;;;;;7.68;5.20;;;12.50;36.20;;;;;;1489644;39;20077;-51
2021/04/28 04:13:58;;;;;;;5.68;5.05;;;12.50;36.20;;;;;;1490794;39;20249;-50
2021/04/28 04:15:19;;;;;;;7.55;5.20;;;12.50;36.20;;;;;;1488087;39;20028;-53
2021/04/28 04:16:40;;;;;;;6.18;5.45;;;12.50;36.20;;;;;;1489310;39;20075;-52
2021/04/28 04:18:01;;;;;;;5.80;5.05;;;12.40;36.10;;;;;;1489632;39;20040;-52
2021/04/28 04:19:22;;;;;;;6.47;5.13;;;12.50;36.30;;;;;;1488661;39;20043;-52
2021/04/28 04:20:43;;;;;;;9.23;5.25;;;12.50;36.30;;;;;;1490526;39;20133;-53
2021/04/28 04:22:04;;;;;;;6.63;5.40;;;12.40;36.40;;;;;;1490361;39;20094;-53
2021/04/28 04:23:25;;;;;;;6.85;5.45;;;12.40;36.50;;;;;;1489781;39;20043;-53
2021/04/28 04:24:45;;;;;;;7.90;5.05;;;12.40;36.50;;;;;;1489946;39;20047;-53
2021/04/28 04:26:06;;;;;;;8.32;6.10;;;12.40;36.60;;;;;;1488416;39;20035;-51
2021/04/28 04:27:27;;;;;;;7.18;5.47;;;12.40;36.70;;;;;;1485815;39;20032;-52
2021/04/28 04:28:48;;;;;;;8.60;5.53;;;12.40;36.80;;;;;;1488376;39;20128;-52
2021/04/28 04:30:10;;;;;;;7.22;5.63;;;12.40;36.80;;;;;;1490329;39;20140;-53
2021/04/28 04:31:32;;;;;;;6.15;5.18;;;12.40;36.70;;;;;;1489446;39;20028;-53
2021/04/28 04:32:53;;;;;;;6.55;4.93;;;12.40;36.70;;;;;;1488199;39;20421;-53
2021/04/28 04:34:14;;;;;;;7.18;5.20;;;12.40;36.70;;;;;;1490542;39;20058;-53
2021/04/28 04:35:35;;;;;;;8.10;5.55;;;12.30;36.60;;;;;;1489574;39;20121;-52
2021/04/28 04:36:56;;;;;;;6.35;5.30;;;12.30;36.70;;;;;;1490482;39;20028;-53
2021/04/28 04:38:17;;;;;;;6.25;5.43;;;12.30;36.70;;;;;;1489619;39;20024;-54
2021/04/28 04:39:38;;;;;;;6.13;5.25;;;12.30;36.80;;;;;;1490988;39;20038;-55
2021/04/28 04:40:59;;;;;;;6.38;5.32;;;12.30;36.80;;;;;;1490466;39;20276;-51
2021/04/28 04:42:20;;;;;;;7.18;5.55;;;12.30;36.80;;;;;;1490749;39;20434;-53
2021/04/28 04:43:40;;;;;;;12.07;5.28;;;12.30;36.80;;;;;;1491077;39;20059;-52
2021/04/28 04:45:01;;;;;;;5.57;5.07;;;12.30;36.90;;;;;;1491708;39;20020;-54
2021/04/28 04:46:22;;;;;;;7.07;5.60;;;12.30;37.10;;;;;;1488338;39;20213;-53
2021/04/28 04:47:43;;;;;;;8.30;5.65;;;12.30;37.20;;;;;;1490696;39;20277;-52
2021/04/28 04:49:04;;;;;;;6.05;5.43;;;12.30;37.30;;;;;;1491346;39;20023;-53
2021/04/28 04:50:25;;;;;;;8.18;5.28;;;12.30;37.40;;;;;;1486779;40;20028;-52
2021/04/28 04:51:46;;;;;;;6.95;5.72;;;12.30;37.50;;;;;;1489565;39;20070;-53
2021/04/28 04:53:08;;;;;;;5.93;5.32;;;12.30;37.50;;;;;;1490712;39;20377;-52
2021/04/28 04:54:29;;;;;;;8.23;5.63;;;12.30;37.60;;;;;;1489826;39;20032;-54
2021/04/28 04:55:50;;;;;;;7.07;5.40;;;12.20;37.50;;;;;;1486767;39;20040;-51
2021/04/28 04:57:11;;;;;;;6.60;5.25;;;12.30;37.50;;;;;;1490101;39;20034;-51
2021/04/28 04:58:32;;;;;;;5.97;5.38;;;12.30;37.50;;;;;;1491590;39;20042;-51
2021/04/28 04:59:53;;;;;;;6.65;5.40;;;12.20;37.50;;;;;;1491533;39;20023;-52
2021/04/28 05:01:14;;;;;;;7.68;5.60;;;12.20;37.50;;;;;;1488733;39;20097;-53
2021/04/28 05:02:35;;;;;;;7.10;5.35;;;12.20;37.50;;;;;;1490209;39;20078;-51
2021/04/28 05:03:56;;;;;;;6.93;5.45;;;12.30;37.70;;;;;;1490069;39;20043;-52
2021/04/28 05:05:17;;;;;;;7.00;5.47;;;12.30;37.70;;;;;;1490185;39;20036;-52
2021/04/28 05:06:38;;;;;;;6.13;5.32;;;12.30;37.70;;;;;;1488896;39;20036;-53
2021/04/28 05:07:59;;;;;;;7.65;5.30;;;12.30;37.80;;;;;;1489581;39;20337;-52
2021/04/28 05:09:21;;;;;;;8.80;5.40;;;12.30;37.80;;;;;;1490355;39;20028;-53
2021/04/28 05:10:42;;;;;;;6.10;5.50;;;12.30;38.00;;;;;;1490056;39;20028;-54
2021/04/28 05:12:03;;;;;;;7.60;5.50;;;12.30;38.00;;;;;;1490793;39;20136;-52
2021/04/28 05:13:24;;;;;;;7.57;6.35;;;12.30;38.00;;;;;;1489035;39;20028;-55
2021/04/28 05:14:45;;;;;;;8.95;5.95;;;12.20;37.90;;;;;;1490373;39;20047;-52
2021/04/28 05:16:06;;;;;;;8.40;5.65;;;12.30;38.20;;;;;;1489036;39;20047;-52
2021/04/28 05:17:27;;;;;;;6.05;5.10;;;12.30;38.30;;;;;;1484648;39;20055;-51
2021/04/28 05:18:47;;;;;;;6.47;5.68;;;12.30;38.20;;;;;;1489236;39;20035;-51
2021/04/28 05:20:10;;;;;;;6.22;5.00;;;12.30;38.20;;;;;;1488428;39;20036;-52
2021/04/28 05:21:31;;;;;;;6.35;5.35;;;12.30;38.30;;;;;;1489645;39;20372;-53
2021/04/28 05:22:52;;;;;;;9.30;5.68;;;12.30;38.30;;;;;;1488758;39;20068;-50
2021/04/28 05:24:13;;;;;;;8.23;5.88;;;12.30;38.30;;;;;;1489829;39;20036;-52
2021/04/28 05:25:34;;;;;;;7.30;5.43;;;12.30;38.40;;;;;;1489633;39;20060;-52
2021/04/28 05:26:55;;;;;;;8.23;5.82;;;12.30;38.40;;;;;;1490177;39;20092;-53
2021/04/28 05:28:16;;;;;;;9.93;5.93;;;12.30;38.60;;;;;;1490505;39;20039;-50
2021/04/28 05:29:37;;;;;;;8.45;5.68;;;12.40;38.80;;;;;;1490661;39;20031;-50
2021/04/28 05:30:58;;;;;;;8.13;5.47;;;12.40;38.90;;;;;;1489695;39;20254;-49
2021/04/28 05:32:19;;;;;;;6.50;5.25;;;12.40;38.90;;;;;;1484096;40;20052;-53
2021/04/28 05:33:40;;;;;;;7.97;5.78;;;12.40;38.80;;;;;;1484569;40;20032;-52
2021/04/28 05:35:02;;;;;;;7.90;5.82;;;12.40;38.70;;;;;;1484780;40;20065;-52
2021/04/28 05:36:23;;;;;;;6.32;5.15;;;12.40;38.80;;;;;;1484233;39;20096;-51
2021/04/28 05:37:44;;;;;;;8.05;5.35;;;12.40;38.80;;;;;;1487166;40;20113;-49
2021/04/28 05:39:05;;;;;;;7.72;5.60;;;12.40;38.80;;;;;;1487031;40;20035;-54
2021/04/28 05:40:27;;;;;;;10.27;5.50;;;12.40;38.70;;;;;;1486893;40;20136;-52
2021/04/28 05:41:48;;;;;;;8.85;5.80;;;12.50;38.80;;;;;;1486687;40;20037;-51
2021/04/28 05:43:09;;;;;;;8.43;5.72;;;12.50;38.90;;;;;;1484766;40;20023;-50
2021/04/28 05:44:30;;;;;;;7.60;5.95;;;12.50;39.00;;;;;;1484306;39;20032;-49
2021/04/28 05:45:51;;;;;;;7.55;4.88;;;12.50;38.90;;;;;;1486444;40;20366;-52
2021/04/28 05:47:13;;;;;;;5.93;5.10;;;12.50;38.80;;;;;;1487066;39;20035;-54
2021/04/28 05:48:34;;;;;;;6.45;5.63;;;12.60;38.80;;;;;;1485934;39;20359;-52
2021/04/28 05:49:55;;;;;;;6.10;5.28;;;12.60;38.80;;;;;;1486792;40;20035;-50
2021/04/28 05:51:17;;;;;;;6.65;5.43;;;12.60;38.90;;;;;;1486408;40;20036;-51
2021/04/28 05:52:38;;;;;;;8.63;5.25;;;12.70;39.10;;;;;;1485272;39;20072;-53
2021/04/28 05:53:59;;;;;;;6.55;5.28;;;12.70;39.00;;;;;;1486925;40;20041;-53
2021/04/28 05:55:20;;;;;;;7.15;5.38;;;12.70;38.90;;;;;;1486841;39;20024;-50
2021/04/28 05:56:41;;;;;;;6.85;5.43;;;12.70;38.80;;;;;;1485228;40;20032;-49
2021/04/28 05:58:03;;;;;;;6.90;6.03;;;12.70;38.90;;;;;;1487125;40;20038;-54
2021/04/28 05:59:25;;;;;;;6.63;5.25;;;12.70;38.90;;;;;;1486907;40;20559;-53
2021/04/28 06:00:46;;;;;;;8.20;5.75;;;12.80;39.10;;;;;;1484888;40;20424;-54
2021/04/28 06:02:07;;;;;;;7.07;5.63;;;12.80;39.00;;;;;;1485700;40;20037;-53
2021/04/28 06:03:29;;;;;;;6.80;5.55;;;12.80;39.00;;;;;;1485577;40;20029;-53
2021/04/28 06:04:49;;;;;;;6.35;5.15;;;12.80;39.00;;;;;;1485761;39;20444;-53
2021/04/28 06:06:10;;;;;;;7.85;5.18;;;12.90;38.90;;;;;;1486807;40;20079;-50
2021/04/28 06:07:31;;;;;;;6.25;5.40;;;12.90;38.70;;;;;;1484763;40;20270;-52
2021/04/28 06:08:52;;;;;;;8.07;6.05;;;12.90;38.80;;;;;;1486472;40;20035;-51
2021/04/28 06:10:15;;;;;;;6.15;5.22;;;12.90;38.90;;;;;;1487118;40;20112;-50
2021/04/28 06:11:36;;;;;;;7.50;5.85;;;13.00;38.80;;;;;;1484879;40;20076;-51
2021/04/28 06:12:57;;;;;;;6.90;5.07;;;13.00;38.70;;;;;;1486550;40;20020;-54
2021/04/28 06:14:18;;;;;;;5.68;4.85;;;13.10;38.70;;;;;;1486993;40;20031;-52
2021/04/28 06:15:39;;;;;;;8.13;5.30;;;13.10;39.20;;;;;;1484914;40;20374;-52
2021/04/28 06:17:05;;;;;;;6.63;5.57;;;13.10;38.50;;;;;;1487297;40;20040;-50
2021/04/28 06:18:26;;;;;;;7.75;5.47;;;13.20;38.50;;;;;;1487212;40;20071;-53
2021/04/28 06:19:46;;;;;;;6.85;5.32;;;13.20;38.40;;;;;;1485564;40;20069;-51
2021/04/28 06:21:08;;;;;;;7.10;5.60;;;13.20;38.40;;;;;;1485639;40;20235;-55
2021/04/28 06:22:28;;;;;;;6.80;5.63;;;13.20;38.30;;;;;;1485640;40;20287;-53
2021/04/28 06:23:51;;;;;;;6.00;5.30;;;13.30;38.30;;;;;;1487269;40;20032;-52
2021/04/28 06:25:13;;;;;;;7.47;5.90;;;13.30;38.30;;;;;;1486614;40;20358;-50
2021/04/28 06:26:36;;;;;;;6.40;5.43;;;13.30;38.30;;;;;;1480022;40;20377;-49
2021/04/28 06:27:57;;;;;;;6.32;5.40;;;13.40;38.20;;;;;;1486721;39;20038;-49
2021/04/28 06:29:18;;;;;;;7.47;5.35;;;13.40;38.10;;;;;;1487071;39;20025;-50
2021/04/28 06:30:39;;;;;;;7.10;5.25;;;13.40;38.00;;;;;;1486562;40;20039;-52
2021/04/28 06:32:00;;;;;;;6.13;5.53;;;13.50;38.10;;;;;;1484663;40;20036;-51
2021/04/28 06:33:21;;;;;;;7.63;5.75;;;13.50;38.10;;;;;;1486552;39;20482;-49
2021/04/28 06:34:42;;;;;;;8.43;5.35;;;13.50;38.00;;;;;;1485598;40;20385;-51
2021/04/28 06:36:03;;;;;;;7.00;5.80;;;13.60;37.80;;;;;;1484760;40;20354;-53
2021/04/28 06:37:24;;;;;;;6.30;5.63;;;13.60;37.70;;;;;;1485806;40;20020;-51
2021/04/28 06:38:45;;;;;;;7.25;5.68;;;13.70;37.70;;;;;;1485749;39;20081;-54
2021/04/28 06:40:10;;;;;;;7.70;5.60;;;13.70;37.60;;;;;;1487394;39;20435;-51
2021/04/28 06:41:31;;;;;;;7.22;5.78;;;13.70;37.60;;;;;;1486317;40;20121;-52
2021/04/28 06:42:52;;;;;;;8.13;5.90;;;13.80;37.60;;;;;;1486927;40;20633;-51
2021/04/28 06:44:13;;;;;;;7.20;5.68;;;13.80;37.70;;;;;;1486901;40;20028;-53
2021/04/28 06:45:35;;;;;;;7.82;5.55;;;13.90;37.80;;;;;;1484476;40;20040;-53
2021/04/28 06:46:56;;;;;;;6.78;5.35;;;13.90;37.80;;;;;;1486417;40;20036;-51
2021/04/28 06:48:17;;;;;;;6.22;5.60;;;14.00;37.80;;;;;;1486782;40;20028;-49
2021/04/28 06:49:38;;;;;;;8.80;5.93;;;14.00;37.70;;;;;;1482476;40;20025;-51
2021/04/28 06:50:59;;;;;;;7.53;5.53;;;14.10;37.70;;;;;;1485002;40;20029;-54
2021/04/28 06:52:20;;;;;;;5.93;5.28;;;14.10;37.70;;;;;;1485935;40;20032;-52
2021/04/28 06:53:41;;;;;;;8.07;5.63;;;14.20;37.70;;;;;;1486122;39;20048;-50
2021/04/28 06:55:03;;;;;;;6.75;6.03;;;14.20;37.50;;;;;;1486781;40;20361;-55
2021/04/28 06:56:24;;;;;;;7.78;5.47;;;14.30;37.60;;;;;;1486317;40;20055;-51
2021/04/28 06:57:52;;;;;;;6.70;5.78;;;14.40;37.60;;;;;;1487628;39;20021;-49
2021/04/28 06:59:17;;;;;;;7.47;5.65;;;14.40;37.50;;;;;;1486359;40;20048;-50
2021/04/28 07:00:38;;;;;;;10.75;5.78;;;14.50;37.50;;;;;;1487158;39;20033;-52
2021/04/28 07:01:59;;;;;;;6.72;5.20;;;14.50;37.40;;;;;;1487000;40;20028;-53
2021/04/28 07:03:20;;;;;;;5.85;5.25;;;14.60;37.40;;;;;;1486163;40;20357;-54
2021/04/28 07:04:41;;;;;;;6.55;5.88;;;14.70;37.40;;;;;;1486274;40;20039;-50